Terminal Aerodrome Forecast
Issued by NWS

Home | Current Version | Previous Version | Text Only | Print | Product List | Glossary On
Versions: 1 2 3 4 5 6 7 8 9 10 11 12 13 14
000
FTUS45 KPSR 072320
TAFIWA
TAF
KIWA 072320Z 0800/0824 28005KT P6SM FEW050 BKN200
     FM080400 11004KT P6SM FEW150 SCT250
     FM082100 30005KT P6SM SCT250
      AMD LTD TO CLD VIS AND WIND 0803/0813=

USA.gov is the U.S. government's official web portal to all federal, state and local government web resources and services.